sensor_id;sensor_type;location;lat;lon;timestamp;P1;durP1;ratioP1;P2;durP2;ratioP2
24799;SDS011;12897;50.812;4.430;2022-09-19T00:01:54;10.83;;;2.97;;
24799;SDS011;12897;50.812;4.430;2022-09-19T00:04:24;9.98;;;3.20;;
24799;SDS011;12897;50.812;4.430;2022-09-19T00:06:57;12.70;;;3.35;;
24799;SDS011;12897;50.812;4.430;2022-09-19T00:09:27;10.00;;;3.12;;
24799;SDS011;12897;50.812;4.430;2022-09-19T00:11:56;12.95;;;3.20;;
24799;SDS011;12897;50.812;4.430;2022-09-19T00:14:28;16.27;;;4.25;;
24799;SDS011;12897;50.812;4.430;2022-09-19T00:17:00;14.38;;;3.12;;
24799;SDS011;12897;50.812;4.430;2022-09-19T00:19:30;12.35;;;3.47;;
24799;SDS011;12897;50.812;4.430;2022-09-19T00:21:59;14.10;;;4.12;;
24799;SDS011;12897;50.812;4.430;2022-09-19T00:24:30;10.00;;;3.05;;
24799;SDS011;12897;50.812;4.430;2022-09-19T00:27:18;18.80;;;3.20;;
24799;SDS011;12897;50.812;4.430;2022-09-19T00:29:50;12.47;;;2.60;;
24799;SDS011;12897;50.812;4.430;2022-09-19T00:37:45;10.63;;;2.72;;
24799;SDS011;12897;50.812;4.430;2022-09-19T00:40:18;12.47;;;2.95;;
24799;SDS011;12897;50.812;4.430;2022-09-19T00:42:55;10.30;;;2.62;;
24799;SDS011;12897;50.812;4.430;2022-09-19T00:45:35;13.85;;;2.62;;
24799;SDS011;12897;50.812;4.430;2022-09-19T00:48:05;16.17;;;2.65;;
24799;SDS011;12897;50.812;4.430;2022-09-19T00:50:34;10.98;;;2.35;;
24799;SDS011;12897;50.812;4.430;2022-09-19T00:53:04;7.97;;;2.60;;
24799;SDS011;12897;50.812;4.430;2022-09-19T00:55:36;18.30;;;3.02;;
24799;SDS011;12897;50.812;4.430;2022-09-19T00:58:14;9.60;;;2.40;;
24799;SDS011;12897;50.812;4.430;2022-09-19T01:00:42;12.68;;;2.60;;
24799;SDS011;12897;50.812;4.430;2022-09-19T01:03:10;8.20;;;2.70;;
24799;SDS011;12897;50.812;4.430;2022-09-19T01:11:27;11.50;;;2.02;;
24799;SDS011;12897;50.812;4.430;2022-09-19T01:14:16;9.13;;;2.60;;
24799;SDS011;12897;50.812;4.430;2022-09-19T01:17:24;14.75;;;2.75;;
24799;SDS011;12897;50.812;4.430;2022-09-19T01:19:47;16.02;;;3.37;;
24799;SDS011;12897;50.812;4.430;2022-09-19T01:22:26;16.10;;;3.05;;
24799;SDS011;12897;50.812;4.430;2022-09-19T01:30:38;12.65;;;2.58;;
24799;SDS011;12897;50.812;4.430;2022-09-19T01:33:10;14.50;;;3.05;;
24799;SDS011;12897;50.812;4.430;2022-09-19T01:35:39;11.40;;;2.27;;
24799;SDS011;12897;50.812;4.430;2022-09-19T01:38:13;7.80;;;2.60;;
24799;SDS011;12897;50.812;4.430;2022-09-19T01:43:15;21.05;;;3.17;;
24799;SDS011;12897;50.812;4.430;2022-09-19T01:45:46;23.75;;;2.85;;
24799;SDS011;12897;50.812;4.430;2022-09-19T01:48:18;8.95;;;2.50;;
24799;SDS011;12897;50.812;4.430;2022-09-19T01:53:58;13.00;;;2.75;;
24799;SDS011;12897;50.812;4.430;2022-09-19T01:56:38;15.75;;;2.67;;
24799;SDS011;12897;50.812;4.430;2022-09-19T01:59:14;19.27;;;2.58;;
24799;SDS011;12897;50.812;4.430;2022-09-19T02:01:56;17.12;;;2.37;;
24799;SDS011;12897;50.812;4.430;2022-09-19T02:04:25;16.20;;;2.55;;
24799;SDS011;12897;50.812;4.430;2022-09-19T02:07:05;9.65;;;2.40;;
24799;SDS011;12897;50.812;4.430;2022-09-19T02:09:52;9.60;;;2.30;;
24799;SDS011;12897;50.812;4.430;2022-09-19T02:12:18;12.15;;;2.33;;
24799;SDS011;12897;50.812;4.430;2022-09-19T02:14:49;12.82;;;2.12;;
24799;SDS011;12897;50.812;4.430;2022-09-19T02:17:38;14.18;;;2.42;;
24799;SDS011;12897;50.812;4.430;2022-09-19T02:20:08;14.50;;;2.72;;
24799;SDS011;12897;50.812;4.430;2022-09-19T02:22:48;16.15;;;2.70;;
24799;SDS011;12897;50.812;4.430;2022-09-19T02:25:19;15.78;;;2.72;;
24799;SDS011;12897;50.812;4.430;2022-09-19T02:27:56;12.93;;;2.27;;
24799;SDS011;12897;50.812;4.430;2022-09-19T02:30:29;17.95;;;2.52;;
24799;SDS011;12897;50.812;4.430;2022-09-19T02:32:57;12.07;;;2.40;;
24799;SDS011;12897;50.812;4.430;2022-09-19T02:35:48;9.00;;;2.70;;
24799;SDS011;12897;50.812;4.430;2022-09-19T02:41:01;12.75;;;2.70;;
24799;SDS011;12897;50.812;4.430;2022-09-19T02:46:26;10.05;;;2.20;;
24799;SDS011;12897;50.812;4.430;2022-09-19T02:49:02;14.00;;;2.55;;
24799;SDS011;12897;50.812;4.430;2022-09-19T02:51:42;14.73;;;3.12;;
24799;SDS011;12897;50.812;4.430;2022-09-19T02:54:14;19.27;;;2.70;;
24799;SDS011;12897;50.812;4.430;2022-09-19T02:56:48;13.55;;;2.65;;
24799;SDS011;12897;50.812;4.430;2022-09-19T02:59:20;12.60;;;2.25;;
24799;SDS011;12897;50.812;4.430;2022-09-19T03:01:52;8.78;;;2.17;;
24799;SDS011;12897;50.812;4.430;2022-09-19T03:04:22;12.30;;;1.92;;
24799;SDS011;12897;50.812;4.430;2022-09-19T03:09:33;16.57;;;2.42;;
24799;SDS011;12897;50.812;4.430;2022-09-19T03:12:02;11.60;;;2.33;;
24799;SDS011;12897;50.812;4.430;2022-09-19T03:14:31;12.47;;;2.10;;
24799;SDS011;12897;50.812;4.430;2022-09-19T03:17:00;6.47;;;1.85;;
24799;SDS011;12897;50.812;4.430;2022-09-19T03:19:30;10.75;;;2.25;;
24799;SDS011;12897;50.812;4.430;2022-09-19T03:21:59;14.23;;;2.42;;
24799;SDS011;12897;50.812;4.430;2022-09-19T03:24:27;10.60;;;2.00;;
24799;SDS011;12897;50.812;4.430;2022-09-19T03:26:54;12.33;;;2.05;;
24799;SDS011;12897;50.812;4.430;2022-09-19T03:29:22;11.40;;;2.40;;
24799;SDS011;12897;50.812;4.430;2022-09-19T03:31:50;19.02;;;2.47;;
24799;SDS011;12897;50.812;4.430;2022-09-19T03:34:19;11.70;;;2.20;;
24799;SDS011;12897;50.812;4.430;2022-09-19T03:36:46;18.60;;;2.20;;
24799;SDS011;12897;50.812;4.430;2022-09-19T03:39:14;10.00;;;2.45;;
24799;SDS011;12897;50.812;4.430;2022-09-19T03:41:42;21.37;;;2.95;;
24799;SDS011;12897;50.812;4.430;2022-09-19T03:44:10;12.82;;;2.50;;
24799;SDS011;12897;50.812;4.430;2022-09-19T03:46:38;9.25;;;2.10;;
24799;SDS011;12897;50.812;4.430;2022-09-19T03:49:10;9.37;;;2.30;;
24799;SDS011;12897;50.812;4.430;2022-09-19T03:51:37;10.18;;;2.35;;
24799;SDS011;12897;50.812;4.430;2022-09-19T03:54:05;12.73;;;2.67;;
24799;SDS011;12897;50.812;4.430;2022-09-19T03:56:35;9.40;;;2.02;;
24799;SDS011;12897;50.812;4.430;2022-09-19T03:59:02;9.83;;;2.15;;
24799;SDS011;12897;50.812;4.430;2022-09-19T04:04:01;9.50;;;2.12;;
24799;SDS011;12897;50.812;4.430;2022-09-19T04:06:32;13.58;;;2.58;;
24799;SDS011;12897;50.812;4.430;2022-09-19T04:08:59;11.22;;;2.22;;
24799;SDS011;12897;50.812;4.430;2022-09-19T04:11:27;18.12;;;2.60;;
24799;SDS011;12897;50.812;4.430;2022-09-19T04:13:55;10.43;;;2.30;;
24799;SDS011;12897;50.812;4.430;2022-09-19T04:16:23;9.98;;;2.22;;
24799;SDS011;12897;50.812;4.430;2022-09-19T04:18:50;11.08;;;1.92;;
24799;SDS011;12897;50.812;4.430;2022-09-19T04:21:19;12.78;;;2.72;;
24799;SDS011;12897;50.812;4.430;2022-09-19T04:23:47;15.93;;;2.45;;
24799;SDS011;12897;50.812;4.430;2022-09-19T04:26:15;15.40;;;2.27;;
24799;SDS011;12897;50.812;4.430;2022-09-19T04:28:47;8.93;;;2.47;;
24799;SDS011;12897;50.812;4.430;2022-09-19T04:31:15;15.60;;;2.40;;
24799;SDS011;12897;50.812;4.430;2022-09-19T04:33:46;14.90;;;2.40;;
24799;SDS011;12897;50.812;4.430;2022-09-19T04:36:14;11.43;;;2.42;;
24799;SDS011;12897;50.812;4.430;2022-09-19T04:38:44;10.75;;;2.92;;
24799;SDS011;12897;50.812;4.430;2022-09-19T04:41:13;17.80;;;2.77;;
24799;SDS011;12897;50.812;4.430;2022-09-19T04:43:45;16.85;;;2.45;;
24799;SDS011;12897;50.812;4.430;2022-09-19T04:46:13;11.28;;;2.50;;
24799;SDS011;12897;50.812;4.430;2022-09-19T04:48:43;11.50;;;2.63;;
24799;SDS011;12897;50.812;4.430;2022-09-19T04:51:11;15.05;;;2.75;;
24799;SDS011;12897;50.812;4.430;2022-09-19T04:53:38;13.80;;;2.62;;
24799;SDS011;12897;50.812;4.430;2022-09-19T04:56:06;14.75;;;2.70;;
24799;SDS011;12897;50.812;4.430;2022-09-19T04:58:33;20.48;;;3.22;;
24799;SDS011;12897;50.812;4.430;2022-09-19T05:01:07;11.20;;;2.47;;
24799;SDS011;12897;50.812;4.430;2022-09-19T05:03:35;9.30;;;2.47;;
24799;SDS011;12897;50.812;4.430;2022-09-19T05:06:03;14.75;;;3.27;;
24799;SDS011;12897;50.812;4.430;2022-09-19T05:08:32;15.65;;;3.75;;
24799;SDS011;12897;50.812;4.430;2022-09-19T05:11:01;14.38;;;2.83;;
24799;SDS011;12897;50.812;4.430;2022-09-19T05:13:31;14.87;;;2.85;;
24799;SDS011;12897;50.812;4.430;2022-09-19T05:16:00;15.28;;;3.62;;
24799;SDS011;12897;50.812;4.430;2022-09-19T05:21:05;8.95;;;2.37;;
24799;SDS011;12897;50.812;4.430;2022-09-19T05:23:38;16.97;;;2.62;;
24799;SDS011;12897;50.812;4.430;2022-09-19T05:26:14;12.88;;;2.80;;
24799;SDS011;12897;50.812;4.430;2022-09-19T05:28:39;15.13;;;3.08;;
24799;SDS011;12897;50.812;4.430;2022-09-19T05:31:09;16.45;;;2.85;;
24799;SDS011;12897;50.812;4.430;2022-09-19T05:33:37;23.45;;;2.83;;
24799;SDS011;12897;50.812;4.430;2022-09-19T05:36:07;13.50;;;3.62;;
24799;SDS011;12897;50.812;4.430;2022-09-19T05:38:35;12.43;;;2.80;;
24799;SDS011;12897;50.812;4.430;2022-09-19T05:41:05;15.18;;;3.35;;
24799;SDS011;12897;50.812;4.430;2022-09-19T05:43:36;17.17;;;5.50;;
24799;SDS011;12897;50.812;4.430;2022-09-19T05:48:45;13.15;;;3.30;;
24799;SDS011;12897;50.812;4.430;2022-09-19T05:51:32;20.25;;;3.85;;
24799;SDS011;12897;50.812;4.430;2022-09-19T05:54:09;24.40;;;3.10;;
24799;SDS011;12897;50.812;4.430;2022-09-19T05:56:42;10.90;;;2.80;;
24799;SDS011;12897;50.812;4.430;2022-09-19T05:59:11;19.63;;;3.60;;
24799;SDS011;12897;50.812;4.430;2022-09-19T06:01:40;14.20;;;4.13;;
24799;SDS011;12897;50.812;4.430;2022-09-19T06:04:08;22.02;;;3.92;;
24799;SDS011;12897;50.812;4.430;2022-09-19T06:06:37;11.87;;;3.57;;
24799;SDS011;12897;50.812;4.430;2022-09-19T06:09:06;22.02;;;5.05;;
24799;SDS011;12897;50.812;4.430;2022-09-19T06:11:33;10.90;;;2.95;;
24799;SDS011;12897;50.812;4.430;2022-09-19T06:14:08;13.75;;;3.72;;
24799;SDS011;12897;50.812;4.430;2022-09-19T06:16:40;19.20;;;3.83;;
24799;SDS011;12897;50.812;4.430;2022-09-19T06:19:08;15.60;;;3.27;;
24799;SDS011;12897;50.812;4.430;2022-09-19T06:21:35;21.95;;;4.72;;
24799;SDS011;12897;50.812;4.430;2022-09-19T06:24:03;12.37;;;4.12;;
24799;SDS011;12897;50.812;4.430;2022-09-19T06:26:33;15.30;;;3.20;;
24799;SDS011;12897;50.812;4.430;2022-09-19T06:29:02;13.25;;;3.77;;
24799;SDS011;12897;50.812;4.430;2022-09-19T06:31:33;19.77;;;3.72;;
24799;SDS011;12897;50.812;4.430;2022-09-19T06:34:02;16.87;;;3.65;;
24799;SDS011;12897;50.812;4.430;2022-09-19T06:36:30;18.50;;;3.45;;
24799;SDS011;12897;50.812;4.430;2022-09-19T06:38:57;19.67;;;4.03;;
24799;SDS011;12897;50.812;4.430;2022-09-19T06:41:26;16.20;;;3.92;;
24799;SDS011;12897;50.812;4.430;2022-09-19T06:43:54;20.52;;;3.33;;
24799;SDS011;12897;50.812;4.430;2022-09-19T06:46:21;17.02;;;3.92;;
24799;SDS011;12897;50.812;4.430;2022-09-19T06:48:49;15.75;;;3.33;;
24799;SDS011;12897;50.812;4.430;2022-09-19T06:51:16;15.13;;;3.60;;
24799;SDS011;12897;50.812;4.430;2022-09-19T06:53:45;17.75;;;3.05;;
24799;SDS011;12897;50.812;4.430;2022-09-19T06:56:13;15.18;;;3.02;;
24799;SDS011;12897;50.812;4.430;2022-09-19T06:58:41;15.05;;;5.62;;
24799;SDS011;12897;50.812;4.430;2022-09-19T07:01:08;17.02;;;3.40;;
24799;SDS011;12897;50.812;4.430;2022-09-19T07:03:36;15.88;;;2.92;;
24799;SDS011;12897;50.812;4.430;2022-09-19T07:06:05;16.43;;;3.73;;
24799;SDS011;12897;50.812;4.430;2022-09-19T07:08:33;14.87;;;3.62;;
24799;SDS011;12897;50.812;4.430;2022-09-19T07:11:01;17.17;;;3.58;;
24799;SDS011;12897;50.812;4.430;2022-09-19T07:13:29;20.60;;;3.77;;
24799;SDS011;12897;50.812;4.430;2022-09-19T07:15:59;19.23;;;3.80;;
24799;SDS011;12897;50.812;4.430;2022-09-19T07:18:30;12.93;;;3.35;;
24799;SDS011;12897;50.812;4.430;2022-09-19T07:21:03;13.50;;;2.98;;
24799;SDS011;12897;50.812;4.430;2022-09-19T07:23:31;17.37;;;3.60;;
24799;SDS011;12897;50.812;4.430;2022-09-19T07:25:59;27.73;;;4.97;;
24799;SDS011;12897;50.812;4.430;2022-09-19T07:28:27;18.60;;;3.37;;
24799;SDS011;12897;50.812;4.430;2022-09-19T07:30:59;17.50;;;3.55;;
24799;SDS011;12897;50.812;4.430;2022-09-19T07:33:27;24.15;;;3.42;;
24799;SDS011;12897;50.812;4.430;2022-09-19T07:35:56;15.35;;;2.60;;
24799;SDS011;12897;50.812;4.430;2022-09-19T07:40:54;16.07;;;3.27;;
24799;SDS011;12897;50.812;4.430;2022-09-19T07:43:24;16.27;;;4.20;;
24799;SDS011;12897;50.812;4.430;2022-09-19T07:45:53;15.73;;;3.47;;
24799;SDS011;12897;50.812;4.430;2022-09-19T07:48:21;19.60;;;3.20;;
24799;SDS011;12897;50.812;4.430;2022-09-19T07:50:49;20.32;;;3.87;;
24799;SDS011;12897;50.812;4.430;2022-09-19T07:53:19;16.97;;;3.33;;
24799;SDS011;12897;50.812;4.430;2022-09-19T07:55:50;16.62;;;3.33;;
24799;SDS011;12897;50.812;4.430;2022-09-19T08:00:48;21.70;;;3.70;;
24799;SDS011;12897;50.812;4.430;2022-09-19T08:03:17;18.15;;;3.58;;
24799;SDS011;12897;50.812;4.430;2022-09-19T08:05:46;18.23;;;3.77;;
24799;SDS011;12897;50.812;4.430;2022-09-19T08:08:18;15.25;;;3.10;;
24799;SDS011;12897;50.812;4.430;2022-09-19T08:10:48;17.48;;;3.30;;
24799;SDS011;12897;50.812;4.430;2022-09-19T08:13:20;12.93;;;3.52;;
24799;SDS011;12897;50.812;4.430;2022-09-19T08:15:47;16.48;;;3.52;;
24799;SDS011;12897;50.812;4.430;2022-09-19T08:18:16;11.43;;;2.90;;
24799;SDS011;12897;50.812;4.430;2022-09-19T08:20:45;22.35;;;3.95;;
24799;SDS011;12897;50.812;4.430;2022-09-19T08:23:15;18.52;;;3.22;;
24799;SDS011;12897;50.812;4.430;2022-09-19T08:25:45;22.15;;;4.12;;
24799;SDS011;12897;50.812;4.430;2022-09-19T08:28:14;29.45;;;4.00;;
24799;SDS011;12897;50.812;4.430;2022-09-19T08:30:46;20.30;;;3.52;;
24799;SDS011;12897;50.812;4.430;2022-09-19T08:33:14;17.73;;;3.02;;
24799;SDS011;12897;50.812;4.430;2022-09-19T08:35:42;14.58;;;2.65;;
24799;SDS011;12897;50.812;4.430;2022-09-19T08:38:11;19.67;;;3.77;;
24799;SDS011;12897;50.812;4.430;2022-09-19T08:43:21;21.62;;;3.50;;
24799;SDS011;12897;50.812;4.430;2022-09-19T08:54:58;12.70;;;3.22;;
24799;SDS011;12897;50.812;4.430;2022-09-19T08:56:47;19.25;;;3.70;;
24799;SDS011;12897;50.812;4.430;2022-09-19T08:59:17;20.12;;;4.42;;
24799;SDS011;12897;50.812;4.430;2022-09-19T09:01:48;15.60;;;3.10;;
24799;SDS011;12897;50.812;4.430;2022-09-19T09:04:27;17.05;;;3.42;;
24799;SDS011;12897;50.812;4.430;2022-09-19T09:12:13;18.05;;;3.58;;
24799;SDS011;12897;50.812;4.430;2022-09-19T09:23:19;16.15;;;3.65;;
24799;SDS011;12897;50.812;4.430;2022-09-19T09:26:00;23.77;;;3.20;;
24799;SDS011;12897;50.812;4.430;2022-09-19T09:28:39;12.10;;;3.22;;
24799;SDS011;12897;50.812;4.430;2022-09-19T09:31:13;23.12;;;4.00;;
24799;SDS011;12897;50.812;4.430;2022-09-19T09:33:48;12.70;;;2.98;;
24799;SDS011;12897;50.812;4.430;2022-09-19T09:36:39;16.30;;;3.52;;
24799;SDS011;12897;50.812;4.430;2022-09-19T09:39:20;21.50;;;3.25;;
24799;SDS011;12897;50.812;4.430;2022-09-19T09:41:44;20.60;;;4.75;;
24799;SDS011;12897;50.812;4.430;2022-09-19T09:49:50;18.62;;;3.05;;
24799;SDS011;12897;50.812;4.430;2022-09-19T09:52:32;17.27;;;3.45;;
24799;SDS011;12897;50.812;4.430;2022-09-19T09:55:23;13.72;;;2.98;;
24799;SDS011;12897;50.812;4.430;2022-09-19T10:01:19;19.35;;;2.90;;
24799;SDS011;12897;50.812;4.430;2022-09-19T10:04:11;23.10;;;3.08;;
24799;SDS011;12897;50.812;4.430;2022-09-19T10:06:38;15.10;;;2.90;;
24799;SDS011;12897;50.812;4.430;2022-09-19T10:09:12;15.23;;;4.15;;
24799;SDS011;12897;50.812;4.430;2022-09-19T10:12:19;13.88;;;2.62;;
24799;SDS011;12897;50.812;4.430;2022-09-19T10:14:49;12.47;;;2.90;;
24799;SDS011;12897;50.812;4.430;2022-09-19T10:17:21;13.80;;;2.75;;
24799;SDS011;12897;50.812;4.430;2022-09-19T10:19:52;27.73;;;3.65;;
24799;SDS011;12897;50.812;4.430;2022-09-19T10:22:26;21.48;;;3.50;;
24799;SDS011;12897;50.812;4.430;2022-09-19T10:24:54;16.00;;;3.75;;
24799;SDS011;12897;50.812;4.430;2022-09-19T10:30:11;19.02;;;3.47;;
24799;SDS011;12897;50.812;4.430;2022-09-19T10:32:46;24.47;;;3.00;;
24799;SDS011;12897;50.812;4.430;2022-09-19T10:35:34;13.20;;;2.83;;
24799;SDS011;12897;50.812;4.430;2022-09-19T10:38:09;13.32;;;2.77;;
24799;SDS011;12897;50.812;4.430;2022-09-19T10:41:03;9.93;;;2.40;;
24799;SDS011;12897;50.812;4.430;2022-09-19T10:43:39;17.30;;;2.67;;
24799;SDS011;12897;50.812;4.430;2022-09-19T10:53:53;15.03;;;2.40;;
24799;SDS011;12897;50.812;4.430;2022-09-19T10:56:22;18.05;;;2.70;;
24799;SDS011;12897;50.812;4.430;2022-09-19T10:59:02;10.30;;;2.33;;
24799;SDS011;12897;50.812;4.430;2022-09-19T11:01:32;12.53;;;3.12;;
24799;SDS011;12897;50.812;4.430;2022-09-19T11:04:05;20.27;;;3.37;;
24799;SDS011;12897;50.812;4.430;2022-09-19T11:06:56;12.70;;;2.72;;
24799;SDS011;12897;50.812;4.430;2022-09-19T11:09:28;19.15;;;3.33;;
24799;SDS011;12897;50.812;4.430;2022-09-19T11:12:09;16.42;;;2.70;;
24799;SDS011;12897;50.812;4.430;2022-09-19T11:14:36;15.38;;;2.50;;
24799;SDS011;12897;50.812;4.430;2022-09-19T11:20:11;15.50;;;2.70;;
24799;SDS011;12897;50.812;4.430;2022-09-19T11:25:36;16.10;;;3.12;;
24799;SDS011;12897;50.812;4.430;2022-09-19T11:31:33;14.30;;;2.40;;
24799;SDS011;12897;50.812;4.430;2022-09-19T11:39:59;14.20;;;2.80;;
24799;SDS011;12897;50.812;4.430;2022-09-19T11:45:12;13.80;;;2.60;;
24799;SDS011;12897;50.812;4.430;2022-09-19T11:47:54;15.33;;;2.60;;
24799;SDS011;12897;50.812;4.430;2022-09-19T12:01:52;17.87;;;2.85;;
24799;SDS011;12897;50.812;4.430;2022-09-19T12:04:27;15.83;;;2.90;;
24799;SDS011;12897;50.812;4.430;2022-09-19T12:07:01;14.58;;;2.37;;
24799;SDS011;12897;50.812;4.430;2022-09-19T12:09:38;10.80;;;2.10;;
24799;SDS011;12897;50.812;4.430;2022-09-19T12:12:15;17.55;;;3.30;;
24799;SDS011;12897;50.812;4.430;2022-09-19T12:14:50;10.78;;;2.27;;
24799;SDS011;12897;50.812;4.430;2022-09-19T12:17:31;7.92;;;2.00;;
24799;SDS011;12897;50.812;4.430;2022-09-19T12:20:57;8.00;;;2.47;;
24799;SDS011;12897;50.812;4.430;2022-09-19T12:22:45;15.00;;;3.10;;
24799;SDS011;12897;50.812;4.430;2022-09-19T12:25:21;9.55;;;2.10;;
24799;SDS011;12897;50.812;4.430;2022-09-19T12:28:04;18.57;;;2.45;;
24799;SDS011;12897;50.812;4.430;2022-09-19T12:30:36;12.63;;;2.52;;
24799;SDS011;12897;50.812;4.430;2022-09-19T12:38:25;13.93;;;2.10;;
24799;SDS011;12897;50.812;4.430;2022-09-19T12:41:09;16.30;;;2.50;;
24799;SDS011;12897;50.812;4.430;2022-09-19T12:43:54;22.67;;;3.45;;
24799;SDS011;12897;50.812;4.430;2022-09-19T12:52:24;20.55;;;2.80;;
24799;SDS011;12897;50.812;4.430;2022-09-19T12:55:13;13.00;;;2.75;;
24799;SDS011;12897;50.812;4.430;2022-09-19T13:00:21;15.90;;;2.50;;
24799;SDS011;12897;50.812;4.430;2022-09-19T13:02:58;16.82;;;2.50;;
24799;SDS011;12897;50.812;4.430;2022-09-19T13:05:47;13.30;;;2.37;;
24799;SDS011;12897;50.812;4.430;2022-09-19T13:08:00;13.00;;;2.90;;
24799;SDS011;12897;50.812;4.430;2022-09-19T13:10:39;14.98;;;2.58;;
24799;SDS011;12897;50.812;4.430;2022-09-19T13:16:00;12.43;;;2.20;;
24799;SDS011;12897;50.812;4.430;2022-09-19T13:18:31;15.45;;;2.02;;
24799;SDS011;12897;50.812;4.430;2022-09-19T13:21:32;12.07;;;2.58;;
24799;SDS011;12897;50.812;4.430;2022-09-19T13:24:09;10.63;;;2.67;;
24799;SDS011;12897;50.812;4.430;2022-09-19T13:26:41;7.45;;;1.60;;
24799;SDS011;12897;50.812;4.430;2022-09-19T13:31:59;11.07;;;1.73;;
24799;SDS011;12897;50.812;4.430;2022-09-19T13:34:36;5.67;;;1.70;;
24799;SDS011;12897;50.812;4.430;2022-09-19T13:42:36;8.75;;;1.45;;
24799;SDS011;12897;50.812;4.430;2022-09-19T13:47:46;12.63;;;1.80;;
24799;SDS011;12897;50.812;4.430;2022-09-19T13:50:24;9.35;;;1.75;;
24799;SDS011;12897;50.812;4.430;2022-09-19T13:53:01;12.98;;;1.77;;
24799;SDS011;12897;50.812;4.430;2022-09-19T13:55:39;11.73;;;1.87;;
24799;SDS011;12897;50.812;4.430;2022-09-19T14:01:15;9.35;;;1.80;;
24799;SDS011;12897;50.812;4.430;2022-09-19T14:03:53;10.40;;;2.10;;
24799;SDS011;12897;50.812;4.430;2022-09-19T14:06:29;13.60;;;2.33;;
24799;SDS011;12897;50.812;4.430;2022-09-19T14:11:49;11.93;;;2.00;;
24799;SDS011;12897;50.812;4.430;2022-09-19T14:19:49;12.95;;;2.30;;
24799;SDS011;12897;50.812;4.430;2022-09-19T14:22:39;14.07;;;2.08;;
24799;SDS011;12897;50.812;4.430;2022-09-19T14:25:15;10.32;;;2.58;;
24799;SDS011;12897;50.812;4.430;2022-09-19T14:33:19;15.40;;;2.37;;
24799;SDS011;12897;50.812;4.430;2022-09-19T14:36:19;9.05;;;2.05;;
24799;SDS011;12897;50.812;4.430;2022-09-19T14:38:35;12.63;;;1.92;;
24799;SDS011;12897;50.812;4.430;2022-09-19T14:41:35;13.05;;;1.82;;
24799;SDS011;12897;50.812;4.430;2022-09-19T14:44:14;6.83;;;1.47;;
24799;SDS011;12897;50.812;4.430;2022-09-19T14:47:38;11.78;;;1.75;;
24799;SDS011;12897;50.812;4.430;2022-09-19T14:49:37;17.60;;;2.42;;
24799;SDS011;12897;50.812;4.430;2022-09-19T14:52:15;9.88;;;1.75;;
24799;SDS011;12897;50.812;4.430;2022-09-19T14:54:47;10.23;;;2.12;;
24799;SDS011;12897;50.812;4.430;2022-09-19T14:57:24;8.33;;;1.60;;
24799;SDS011;12897;50.812;4.430;2022-09-19T14:59:54;10.05;;;1.80;;
24799;SDS011;12897;50.812;4.430;2022-09-19T15:02:26;8.20;;;1.95;;
24799;SDS011;12897;50.812;4.430;2022-09-19T15:05:13;10.32;;;1.77;;
24799;SDS011;12897;50.812;4.430;2022-09-19T15:07:31;13.08;;;1.62;;
24799;SDS011;12897;50.812;4.430;2022-09-19T15:10:18;14.50;;;1.80;;
24799;SDS011;12897;50.812;4.430;2022-09-19T15:12:52;11.45;;;2.20;;
24799;SDS011;12897;50.812;4.430;2022-09-19T15:15:22;9.85;;;1.50;;
24799;SDS011;12897;50.812;4.430;2022-09-19T15:17:53;12.15;;;1.70;;
24799;SDS011;12897;50.812;4.430;2022-09-19T15:20:21;15.08;;;2.50;;
24799;SDS011;12897;50.812;4.430;2022-09-19T15:22:50;10.95;;;1.70;;
24799;SDS011;12897;50.812;4.430;2022-09-19T15:28:24;10.68;;;1.67;;
24799;SDS011;12897;50.812;4.430;2022-09-19T15:30:55;7.25;;;1.50;;
24799;SDS011;12897;50.812;4.430;2022-09-19T15:33:26;9.28;;;1.55;;
24799;SDS011;12897;50.812;4.430;2022-09-19T15:38:29;9.48;;;1.27;;
24799;SDS011;12897;50.812;4.430;2022-09-19T15:40:59;10.53;;;1.80;;
24799;SDS011;12897;50.812;4.430;2022-09-19T15:43:30;9.38;;;2.08;;
24799;SDS011;12897;50.812;4.430;2022-09-19T15:46:03;8.33;;;1.60;;
24799;SDS011;12897;50.812;4.430;2022-09-19T15:54:12;8.08;;;1.70;;
24799;SDS011;12897;50.812;4.430;2022-09-19T15:56:44;9.48;;;1.87;;
24799;SDS011;12897;50.812;4.430;2022-09-19T15:59:21;12.35;;;1.95;;
24799;SDS011;12897;50.812;4.430;2022-09-19T16:01:58;9.10;;;1.60;;
24799;SDS011;12897;50.812;4.430;2022-09-19T16:04:37;10.15;;;1.60;;
24799;SDS011;12897;50.812;4.430;2022-09-19T16:07:23;7.70;;;1.80;;
24799;SDS011;12897;50.812;4.430;2022-09-19T16:10:17;9.03;;;1.90;;
24799;SDS011;12897;50.812;4.430;2022-09-19T16:12:47;8.40;;;1.50;;
24799;SDS011;12897;50.812;4.430;2022-09-19T16:18:12;8.10;;;1.80;;
24799;SDS011;12897;50.812;4.430;2022-09-19T16:20:49;10.05;;;2.27;;
24799;SDS011;12897;50.812;4.430;2022-09-19T16:23:23;11.75;;;2.27;;
24799;SDS011;12897;50.812;4.430;2022-09-19T16:26:00;9.83;;;1.70;;
24799;SDS011;12897;50.812;4.430;2022-09-19T16:36:23;9.65;;;1.47;;
24799;SDS011;12897;50.812;4.430;2022-09-19T16:47:23;11.35;;;2.05;;
24799;SDS011;12897;50.812;4.430;2022-09-19T16:49:37;9.10;;;1.90;;
24799;SDS011;12897;50.812;4.430;2022-09-19T16:52:09;11.00;;;1.90;;
24799;SDS011;12897;50.812;4.430;2022-09-19T16:54:38;8.15;;;2.05;;
24799;SDS011;12897;50.812;4.430;2022-09-19T16:57:07;10.58;;;1.55;;
24799;SDS011;12897;50.812;4.430;2022-09-19T16:59:37;9.38;;;1.87;;
24799;SDS011;12897;50.812;4.430;2022-09-19T17:02:11;8.88;;;2.22;;
24799;SDS011;12897;50.812;4.430;2022-09-19T17:04:49;9.20;;;2.02;;
24799;SDS011;12897;50.812;4.430;2022-09-19T17:07:19;12.67;;;1.77;;
24799;SDS011;12897;50.812;4.430;2022-09-19T17:09:48;11.45;;;2.00;;
24799;SDS011;12897;50.812;4.430;2022-09-19T17:12:17;13.53;;;1.93;;
24799;SDS011;12897;50.812;4.430;2022-09-19T17:14:46;6.75;;;1.70;;
24799;SDS011;12897;50.812;4.430;2022-09-19T17:17:14;11.12;;;1.95;;
24799;SDS011;12897;50.812;4.430;2022-09-19T17:19:44;10.37;;;1.80;;
24799;SDS011;12897;50.812;4.430;2022-09-19T17:22:14;16.05;;;2.65;;
24799;SDS011;12897;50.812;4.430;2022-09-19T17:24:43;11.33;;;2.15;;
24799;SDS011;12897;50.812;4.430;2022-09-19T17:27:13;8.00;;;1.82;;
24799;SDS011;12897;50.812;4.430;2022-09-19T17:29:42;12.40;;;2.30;;
24799;SDS011;12897;50.812;4.430;2022-09-19T17:32:10;9.13;;;1.80;;
24799;SDS011;12897;50.812;4.430;2022-09-19T17:34:38;8.03;;;2.40;;
24799;SDS011;12897;50.812;4.430;2022-09-19T17:37:06;9.15;;;1.70;;
24799;SDS011;12897;50.812;4.430;2022-09-19T17:39:35;14.98;;;1.92;;
24799;SDS011;12897;50.812;4.430;2022-09-19T17:42:03;11.85;;;1.75;;
24799;SDS011;12897;50.812;4.430;2022-09-19T17:44:33;13.50;;;2.12;;
24799;SDS011;12897;50.812;4.430;2022-09-19T17:47:05;7.55;;;1.65;;
24799;SDS011;12897;50.812;4.430;2022-09-19T17:49:34;16.00;;;4.20;;
24799;SDS011;12897;50.812;4.430;2022-09-19T17:52:03;9.68;;;1.67;;
24799;SDS011;12897;50.812;4.430;2022-09-19T17:54:31;8.13;;;1.70;;
24799;SDS011;12897;50.812;4.430;2022-09-19T17:56:59;10.25;;;1.80;;
24799;SDS011;12897;50.812;4.430;2022-09-19T17:59:27;9.73;;;1.75;;
24799;SDS011;12897;50.812;4.430;2022-09-19T18:01:54;10.82;;;2.00;;
24799;SDS011;12897;50.812;4.430;2022-09-19T18:04:40;10.88;;;1.90;;
24799;SDS011;12897;50.812;4.430;2022-09-19T18:07:07;11.35;;;2.50;;
24799;SDS011;12897;50.812;4.430;2022-09-19T18:09:35;13.28;;;2.92;;
24799;SDS011;12897;50.812;4.430;2022-09-19T18:12:02;10.50;;;1.70;;
24799;SDS011;12897;50.812;4.430;2022-09-19T18:14:31;12.18;;;2.30;;
24799;SDS011;12897;50.812;4.430;2022-09-19T18:17:00;12.13;;;2.10;;
24799;SDS011;12897;50.812;4.430;2022-09-19T18:19:27;16.15;;;3.08;;